Friday, November 24, 2017, 12:32 AM EST
Back to Local

KFDK, Frederick, Frederick Municipal Airport

Location: Frederick, MD, United States Lat: 39.417
Local Time: 12:32 AM EST ( 5:32 GMT) Lon: -77.374
Time Zone: US/Eastern Elev: 301 ft

Show me the last for .
Show Decoded

2017-11-24 00:05 METAR KFDK 240505Z AUTO 00000KT 10SM CLR M03/M03 A3010 RMK AO2 =
2017-11-23 23:45 METAR KFDK 240445Z AUTO 00000KT 10SM CLR M02/M02 A3010 RMK AO2 =
2017-11-23 23:25 METAR KFDK 240425Z AUTO 00000KT 10SM CLR M02/M05 A3010 RMK AO2 =
2017-11-23 23:05 METAR KFDK 240405Z AUTO 00000KT 10SM CLR M02/M04 A3010 RMK AO2 =
2017-11-23 22:45 METAR KFDK 240345Z AUTO 00000KT 10SM CLR M02/M03 A3010 RMK AO2 =
2017-11-23 22:25 METAR KFDK 240325Z AUTO 00000KT 10SM CLR M01/M03 A3009 RMK AO2 =
2017-11-23 22:05 METAR KFDK 240305Z AUTO 00000KT 10SM CLR M01/M05 A3010 RMK AO2 =
2017-11-23 21:45 METAR KFDK 240245Z AUTO 00000KT 10SM CLR M02/M05 A3009 RMK AO2 =
2017-11-23 21:25 METAR KFDK 240225Z AUTO 00000KT 10SM CLR 00/M05 A3009 RMK AO2 =
2017-11-23 21:05 METAR KFDK 240205Z AUTO 00000KT 10SM CLR M01/M05 A3009 RMK AO2 =
2017-11-23 20:47 METAR KFDK 240147Z 00000KT 10SM SKC M01/M05 A3008 =
2017-11-23 19:47 METAR KFDK 240047Z 00000KT 10SM SKC 01/M04 A3007 =
2017-11-23 18:47 METAR KFDK 232347Z 00000KT 10SM SKC 01/M04 A3008 =
2017-11-23 17:47 METAR KFDK 232247Z 00000KT 10SM SKC 02/M05 A3009 =
2017-11-23 16:47 METAR KFDK 232147Z 23005KT 10SM SKC 04/M07 A3008 =
2017-11-23 15:47 METAR KFDK 232047Z 00000KT 10SM SKC 06/M08 A3009 =
2017-11-23 14:47 METAR KFDK 231947Z 25006KT 10SM SKC 07/M08 A3008 =
2017-11-23 13:47 METAR KFDK 231847Z 00000KT 10SM SKC 07/M07 A3011 =
2017-11-23 12:47 METAR KFDK 231747Z 00000KT 10SM SKC 06/M07 A3013 =
2017-11-23 11:47 METAR KFDK 231647Z 00000KT 10SM SKC 05/M07 A3015 =
2017-11-23 10:47 METAR KFDK 231547Z VRB06KT 10SM SKC 04/M07 A3019 =
2017-11-23 09:47 METAR KFDK 231447Z 29006KT 10SM SCT034 03/M07 A3020 =
2017-11-23 08:47 METAR KFDK 231347Z 27003KT 10SM SCT038 02/M06 A3022 =
2017-11-23 07:47 METAR KFDK 231247Z 00000KT 10SM BKN038 M01/M06 A3022 =
2017-11-23 06:50 METAR KFDK 231150Z AUTO 00000KT 10SM OVC038 M02/M02 A3021 RMK AO2 =
2017-11-23 06:45 METAR KFDK 231145Z AUTO 00000KT 10SM OVC038 M02/M02 A3021 RMK AO2 =
2017-11-23 06:25 METAR KFDK 231125Z AUTO 00000KT 10SM BKN038 M03/M03 A3021 RMK AO2 =
2017-11-23 06:05 METAR KFDK 231105Z AUTO 00000KT 10SM SCT038 M03/M03 A3020 RMK AO2 =
2017-11-23 05:45 METAR KFDK 231045Z AUTO 00000KT 10SM CLR M03/M04 A3020 RMK AO2 =
2017-11-23 05:25 METAR KFDK 231025Z AUTO 00000KT 10SM CLR M03/M03 A3020 RMK AO2 =
2017-11-23 05:05 METAR KFDK 231005Z AUTO 00000KT 10SM CLR M03/M03 A3019 RMK AO2 =
2017-11-23 04:45 METAR KFDK 230945Z AUTO 00000KT 10SM CLR M03/M03 A3019 RMK AO2 =
2017-11-23 04:25 METAR KFDK 230925Z AUTO 00000KT 10SM CLR M03/M03 A3019 RMK AO2 =
2017-11-23 04:05 METAR KFDK 230905Z AUTO 00000KT 10SM CLR M02/M03 A3019 RMK AO2 =
2017-11-23 03:45 METAR KFDK 230845Z AUTO 00000KT 10SM CLR M02/M05 A3019 RMK AO2 =
2017-11-23 03:25 METAR KFDK 230825Z AUTO 00000KT 10SM CLR M03/M06 A3019 RMK AO2 =
2017-11-23 03:05 METAR KFDK 230805Z AUTO 00000KT 10SM CLR M02/M06 A3020 RMK AO2 =
2017-11-23 02:45 METAR KFDK 230745Z AUTO 00000KT 10SM CLR M02/M06 A3020 RMK AO2 =
2017-11-23 02:25 METAR KFDK 230725Z AUTO 00000KT 10SM CLR 00/M06 A3020 RMK AO2 =
2017-11-23 02:05 METAR KFDK 230705Z AUTO 00000KT 10SM CLR 00/M06 A3019 RMK AO2 =
2017-11-23 01:45 METAR KFDK 230645Z AUTO 31004KT 10SM CLR 00/M06 A3018 RMK AO2 =
2017-11-23 01:25 METAR KFDK 230625Z AUTO 01003KT 10SM CLR 00/M06 A3019 RMK AO2 =
2017-11-23 01:05 METAR KFDK 230605Z AUTO 33004KT 10SM CLR 00/M06 A3020 RMK AO2 =
2017-11-23 00:45 METAR KFDK 230545Z AUTO 33003KT 10SM CLR 00/M06 A3021 RMK AO2 =

Support USWX by starting your Amazon purchase here.